createdAt,value
2019-05-01T04:14:08.764Z,12.97
2019-05-01T04:19:09.917Z,11.97
2019-05-01T04:24:10.955Z,11.90
2019-05-01T04:29:13.795Z,13.17
2019-05-01T04:34:22.372Z,11.60
2019-05-01T04:39:23.640Z,13.93
2019-05-01T04:44:24.721Z,12.90
2019-05-01T04:49:26.018Z,12.70
2019-05-01T04:54:26.977Z,14.53
2019-05-01T04:59:28.028Z,14.40
2019-05-01T05:04:29.410Z,14.87
2019-05-01T05:09:38.642Z,16.53
2019-05-01T05:14:47.519Z,19.03
2019-05-01T05:19:48.892Z,20.93
2019-05-01T05:24:51.563Z,21.63
2019-05-01T05:29:56.735Z,27.97
2019-05-01T05:34:58.893Z,25.97
2019-05-01T05:40:00.906Z,29.87
2019-05-01T05:45:04.405Z,25.33
2019-05-01T05:50:07.467Z,25.90
2019-05-01T05:55:11.644Z,22.23
2019-05-01T06:00:20.708Z,28.17
2019-05-01T06:05:44.044Z,22.10
2019-05-01T06:11:06.852Z,23.40
2019-05-01T06:16:12.181Z,25.87
2019-05-01T06:21:20.352Z,24.57
2019-05-01T06:26:26.655Z,23.37
2019-05-01T06:31:27.636Z,26.60
2019-05-01T06:36:28.607Z,24.57
2019-05-01T06:41:33.860Z,29.33
2019-05-01T06:46:36.577Z,30.53
2019-05-01T06:51:42.560Z,28.77
2019-05-01T06:56:43.843Z,26.63
2019-05-01T07:01:46.073Z,24.23
2019-05-01T07:06:47.229Z,27.10
2019-05-01T07:11:52.652Z,28.33
2019-05-01T07:16:51.836Z,30.03
2019-05-01T07:21:52.845Z,25.30
2019-05-01T07:26:53.736Z,22.83
2019-05-01T07:31:54.708Z,25.00
2019-05-01T07:36:55.929Z,24.67
2019-05-01T07:41:59.118Z,24.93
2019-05-01T07:47:04.662Z,20.67
2019-05-01T07:52:05.732Z,20.70
2019-05-01T07:57:06.600Z,27.77
2019-05-01T08:02:09.376Z,20.27
2019-05-01T08:07:10.364Z,21.50
2019-05-01T08:12:14.265Z,20.43
2019-05-01T08:17:18.080Z,19.90
2019-05-01T08:22:20.960Z,19.30
2019-05-01T08:27:23.788Z,15.73
2019-05-01T08:32:40.790Z,20.67
2019-05-01T08:37:41.658Z,17.33
2019-05-01T08:42:44.135Z,18.63
2019-05-01T08:47:47.116Z,18.27
2019-05-01T08:52:48.737Z,17.03
2019-05-01T08:57:49.777Z,16.03
2019-05-01T09:02:50.653Z,19.47
2019-05-01T09:07:55.839Z,21.07
2019-05-01T09:12:54.312Z,17.63
2019-05-01T09:17:55.295Z,15.63
2019-05-01T09:22:56.276Z,17.10
2019-05-01T09:28:06.022Z,14.63
2019-05-01T09:33:07.240Z,15.83
2019-05-01T09:38:08.209Z,14.97
2019-05-01T09:43:09.184Z,15.90
2019-05-01T09:48:10.159Z,14.13
2019-05-01T09:53:29.746Z,15.37
2019-05-01T09:58:29.264Z,11.53
2019-05-01T10:03:30.152Z,13.70
2019-05-01T10:08:34.947Z,11.60
2019-05-01T10:13:34.012Z,13.80
2019-05-01T10:18:34.868Z,11.13
2019-05-01T10:23:35.740Z,11.57
2019-05-01T10:28:45.085Z,13.77
2019-05-01T10:33:51.501Z,10.10
2019-05-01T10:38:52.580Z,12.30
2019-05-01T10:43:53.562Z,11.90
2019-05-01T10:48:57.199Z,9.67
2019-05-01T10:53:57.231Z,11.60
2019-05-01T10:58:58.459Z,10.93
2019-05-01T11:03:59.416Z,11.00
2019-05-01T11:09:00.287Z,12.67
2019-05-01T11:14:01.419Z,13.43
2019-05-01T11:19:02.803Z,13.73
2019-05-01T11:24:04.237Z,10.97
2019-05-01T11:29:05.635Z,12.77
2019-05-01T11:34:25.244Z,11.27
2019-05-01T11:39:28.020Z,16.43
2019-05-01T11:44:29.542Z,11.17
2019-05-01T11:49:30.522Z,19.43
2019-05-01T11:54:31.421Z,15.63
2019-05-01T11:59:32.886Z,11.23
2019-05-01T12:04:33.971Z,12.73
2019-05-01T12:09:34.840Z,20.20
2019-05-01T12:14:35.717Z,12.40
2019-05-01T12:19:36.628Z,13.53
2019-05-01T12:24:39.933Z,13.47
2019-05-01T12:29:41.173Z,16.37
2019-05-01T12:34:42.255Z,17.13
2019-05-01T12:39:44.631Z,13.33
2019-05-01T12:44:45.522Z,14.03
2019-05-01T12:49:48.304Z,17.40
2019-05-01T12:54:52.054Z,14.40
2019-05-01T12:59:53.162Z,16.10
2019-05-01T13:04:54.152Z,14.30
2019-05-01T13:09:55.035Z,14.60
2019-05-01T13:14:55.906Z,13.83
2019-05-01T13:19:56.790Z,15.00
2019-05-01T13:24:57.656Z,15.60
2019-05-01T13:30:00.459Z,15.83
2019-05-01T13:35:01.749Z,17.73
2019-05-01T13:40:05.646Z,15.57
2019-05-01T13:45:07.337Z,15.33
2019-05-01T13:50:08.913Z,17.57
2019-05-01T13:55:09.932Z,15.80
2019-05-01T14:00:11.308Z,14.40
2019-05-01T14:05:12.389Z,18.07
2019-05-01T14:10:13.563Z,24.53
2019-05-01T14:15:16.456Z,15.67
2019-05-01T14:20:34.339Z,17.33
2019-05-01T14:25:53.509Z,18.10
2019-05-01T14:30:54.394Z,18.43
2019-05-01T14:35:55.411Z,17.03
2019-05-01T14:40:56.268Z,23.00
2019-05-01T14:45:57.152Z,18.50
2019-05-01T14:50:58.484Z,18.47
2019-05-01T14:55:59.339Z,20.63
2019-05-01T15:01:00.221Z,19.63
2019-05-01T15:06:01.080Z,20.47
2019-05-01T15:11:02.063Z,17.87
2019-05-01T15:16:21.848Z,18.70
2019-05-01T15:21:22.822Z,16.87
2019-05-01T15:26:23.747Z,20.93
2019-05-01T15:31:24.622Z,18.10
2019-05-01T15:36:25.498Z,17.93
2019-05-01T15:41:45.143Z,20.20
2019-05-01T15:46:46.430Z,15.37
2019-05-01T15:51:47.627Z,18.03
2019-05-01T15:56:48.497Z,19.80
2019-05-01T16:01:49.483Z,16.87
2019-05-01T16:06:50.340Z,20.43
2019-05-01T16:12:09.673Z,17.27
2019-05-01T16:17:10.679Z,14.27
2019-05-01T16:22:11.559Z,15.90
2019-05-01T16:27:12.582Z,16.70
2019-05-01T16:32:13.556Z,18.30
2019-05-01T16:37:14.433Z,16.27
2019-05-01T16:42:15.407Z,13.93
2019-05-01T16:47:16.280Z,16.80
2019-05-01T16:52:19.080Z,18.00
2019-05-01T16:57:20.292Z,14.13
2019-05-01T17:02:26.116Z,16.37
2019-05-01T17:07:31.823Z,19.27
2019-05-01T17:12:34.703Z,19.33
2019-05-01T17:17:36.675Z,17.80
2019-05-01T17:22:37.554Z,19.20
2019-05-01T17:27:38.460Z,15.63
2019-05-01T17:32:39.830Z,17.43
2019-05-01T17:37:42.321Z,14.13
2019-05-01T17:42:43.183Z,15.10
2019-05-01T17:47:44.156Z,12.50
2019-05-01T17:52:45.031Z,17.97
2019-05-01T17:57:45.904Z,12.70
2019-05-01T18:02:49.188Z,16.10
2019-05-01T18:07:50.052Z,17.17
2019-05-01T18:12:50.925Z,17.13
2019-05-01T18:17:51.819Z,16.70
2019-05-01T18:23:08.474Z,18.30
2019-05-01T18:28:30.020Z,19.20
2019-05-01T18:33:31.599Z,18.27
2019-05-01T18:38:37.160Z,15.80
2019-05-01T18:43:38.032Z,16.17
2019-05-01T18:48:39.115Z,16.53
2019-05-01T18:53:40.289Z,15.10
2019-05-01T18:58:41.348Z,16.83
2019-05-01T19:03:44.073Z,15.50
2019-05-01T19:08:45.372Z,16.17
2019-05-01T19:13:46.243Z,19.83
2019-05-01T19:18:47.123Z,16.17
2019-05-01T19:23:48.442Z,16.23
2019-05-01T19:28:49.404Z,16.70
2019-05-01T19:33:50.360Z,16.10
2019-05-01T19:38:51.245Z,16.40
2019-05-01T19:43:52.369Z,20.20
2019-05-01T19:48:53.312Z,17.00
2019-05-01T19:53:54.306Z,16.77
2019-05-01T19:58:55.344Z,17.20
2019-05-01T20:03:56.405Z,17.03
2019-05-01T20:08:57.403Z,17.60
2019-05-01T20:13:58.695Z,17.40
2019-05-01T20:18:59.809Z,18.03
2019-05-01T20:24:08.990Z,16.30
2019-05-01T20:29:07.923Z,18.03
2019-05-01T20:34:12.122Z,17.03
2019-05-01T20:39:12.323Z,17.47
2019-05-01T20:44:13.982Z,17.00
2019-05-01T20:49:16.072Z,17.80
2019-05-01T20:54:16.935Z,15.67
2019-05-01T20:59:17.804Z,14.87
2019-05-01T21:04:35.840Z,15.97
2019-05-01T21:09:47.919Z,16.57
2019-05-01T21:14:49.617Z,15.33
